sensor_id;sensor_type;location;lat;lon;timestamp;temperature;humidity
43949;DHT22;29429;51.074;13.764;2024-02-21T00:01:32;8.30;99.90
43949;DHT22;29429;51.074;13.764;2024-02-21T00:03:59;8.40;99.90
43949;DHT22;29429;51.074;13.764;2024-02-21T00:06:26;8.30;99.90
43949;DHT22;29429;51.074;13.764;2024-02-21T00:08:53;8.40;99.90
43949;DHT22;29429;51.074;13.764;2024-02-21T00:11:21;8.30;99.90
43949;DHT22;29429;51.074;13.764;2024-02-21T00:13:48;8.40;99.90
43949;DHT22;29429;51.074;13.764;2024-02-21T00:16:15;8.40;99.90
43949;DHT22;29429;51.074;13.764;2024-02-21T00:18:43;8.40;99.90
43949;DHT22;29429;51.074;13.764;2024-02-21T00:21:12;8.40;99.90
43949;DHT22;29429;51.074;13.764;2024-02-21T00:23:45;8.40;99.90
43949;DHT22;29429;51.074;13.764;2024-02-21T00:26:13;8.30;99.90
43949;DHT22;29429;51.074;13.764;2024-02-21T00:28:40;8.40;99.90
43949;DHT22;29429;51.074;13.764;2024-02-21T00:31:07;8.40;99.90
43949;DHT22;29429;51.074;13.764;2024-02-21T00:33:34;8.40;99.90
43949;DHT22;29429;51.074;13.764;2024-02-21T00:36:02;8.40;99.90
43949;DHT22;29429;51.074;13.764;2024-02-21T00:38:28;8.40;99.90
43949;DHT22;29429;51.074;13.764;2024-02-21T00:40:55;8.50;99.90
43949;DHT22;29429;51.074;13.764;2024-02-21T00:43:23;8.50;99.90
43949;DHT22;29429;51.074;13.764;2024-02-21T00:45:51;8.50;99.90
43949;DHT22;29429;51.074;13.764;2024-02-21T00:48:18;8.50;99.90
43949;DHT22;29429;51.074;13.764;2024-02-21T00:50:45;8.50;99.90
43949;DHT22;29429;51.074;13.764;2024-02-21T00:53:12;8.50;99.90
43949;DHT22;29429;51.074;13.764;2024-02-21T00:55:39;8.50;99.90
43949;DHT22;29429;51.074;13.764;2024-02-21T00:58:07;8.50;99.90
43949;DHT22;29429;51.074;13.764;2024-02-21T01:00:33;8.50;99.90
43949;DHT22;29429;51.074;13.764;2024-02-21T01:03:00;8.50;99.90
43949;DHT22;29429;51.074;13.764;2024-02-21T01:05:28;8.50;99.90
43949;DHT22;29429;51.074;13.764;2024-02-21T01:07:55;8.50;99.90
43949;DHT22;29429;51.074;13.764;2024-02-21T01:10:22;8.50;99.90
43949;DHT22;29429;51.074;13.764;2024-02-21T01:12:50;8.40;99.90
43949;DHT22;29429;51.074;13.764;2024-02-21T01:15:17;8.40;99.90
43949;DHT22;29429;51.074;13.764;2024-02-21T01:17:44;8.40;99.90
43949;DHT22;29429;51.074;13.764;2024-02-21T01:20:11;8.40;99.90
43949;DHT22;29429;51.074;13.764;2024-02-21T01:22:38;8.40;99.90
43949;DHT22;29429;51.074;13.764;2024-02-21T01:25:05;8.40;99.90
43949;DHT22;29429;51.074;13.764;2024-02-21T01:27:33;8.40;99.90
43949;DHT22;29429;51.074;13.764;2024-02-21T01:30:00;8.40;99.90
43949;DHT22;29429;51.074;13.764;2024-02-21T01:32:27;8.40;99.90
43949;DHT22;29429;51.074;13.764;2024-02-21T01:34:53;8.30;99.90
43949;DHT22;29429;51.074;13.764;2024-02-21T01:37:20;8.40;99.90
43949;DHT22;29429;51.074;13.764;2024-02-21T01:39:48;8.30;99.90
43949;DHT22;29429;51.074;13.764;2024-02-21T01:42:16;8.30;99.90
43949;DHT22;29429;51.074;13.764;2024-02-21T01:44:43;8.30;99.90
43949;DHT22;29429;51.074;13.764;2024-02-21T01:47:11;8.30;99.90
43949;DHT22;29429;51.074;13.764;2024-02-21T01:49:43;8.30;99.90
43949;DHT22;29429;51.074;13.764;2024-02-21T01:52:12;8.30;99.90
43949;DHT22;29429;51.074;13.764;2024-02-21T01:54:44;8.20;99.90
43949;DHT22;29429;51.074;13.764;2024-02-21T01:57:13;8.20;99.90
43949;DHT22;29429;51.074;13.764;2024-02-21T01:59:41;8.20;99.90
43949;DHT22;29429;51.074;13.764;2024-02-21T02:02:09;8.20;99.90
43949;DHT22;29429;51.074;13.764;2024-02-21T02:04:38;8.20;99.90
43949;DHT22;29429;51.074;13.764;2024-02-21T02:07:07;8.20;99.90
43949;DHT22;29429;51.074;13.764;2024-02-21T02:09:34;8.10;99.90
43949;DHT22;29429;51.074;13.764;2024-02-21T02:12:02;8.10;99.90
43949;DHT22;29429;51.074;13.764;2024-02-21T02:14:29;8.10;99.90
43949;DHT22;29429;51.074;13.764;2024-02-21T02:16:56;8.10;99.90
43949;DHT22;29429;51.074;13.764;2024-02-21T02:19:23;8.10;99.90
43949;DHT22;29429;51.074;13.764;2024-02-21T02:21:54;8.10;99.90
43949;DHT22;29429;51.074;13.764;2024-02-21T02:24:26;8.10;99.90
43949;DHT22;29429;51.074;13.764;2024-02-21T02:26:53;8.20;99.90
43949;DHT22;29429;51.074;13.764;2024-02-21T02:29:20;8.20;99.90
43949;DHT22;29429;51.074;13.764;2024-02-21T02:31:48;8.20;99.90
43949;DHT22;29429;51.074;13.764;2024-02-21T02:34:16;8.10;99.90
43949;DHT22;29429;51.074;13.764;2024-02-21T02:36:43;8.20;99.90
43949;DHT22;29429;51.074;13.764;2024-02-21T02:39:10;8.30;99.90
43949;DHT22;29429;51.074;13.764;2024-02-21T02:41:37;8.20;99.90
43949;DHT22;29429;51.074;13.764;2024-02-21T02:44:04;8.20;99.90
43949;DHT22;29429;51.074;13.764;2024-02-21T02:46:31;8.20;99.90
43949;DHT22;29429;51.074;13.764;2024-02-21T02:48:58;8.20;99.90
43949;DHT22;29429;51.074;13.764;2024-02-21T02:51:25;8.20;99.90
43949;DHT22;29429;51.074;13.764;2024-02-21T02:53:52;8.20;99.90
43949;DHT22;29429;51.074;13.764;2024-02-21T02:56:19;8.20;99.90
43949;DHT22;29429;51.074;13.764;2024-02-21T02:58:45;8.20;99.90
43949;DHT22;29429;51.074;13.764;2024-02-21T03:01:13;8.20;99.90
43949;DHT22;29429;51.074;13.764;2024-02-21T03:03:40;8.20;99.90
43949;DHT22;29429;51.074;13.764;2024-02-21T03:06:07;8.10;99.90
43949;DHT22;29429;51.074;13.764;2024-02-21T03:08:35;8.10;99.90
43949;DHT22;29429;51.074;13.764;2024-02-21T03:11:01;8.10;99.90
43949;DHT22;29429;51.074;13.764;2024-02-21T03:13:29;8.10;99.90
43949;DHT22;29429;51.074;13.764;2024-02-21T03:15:56;8.10;99.90
43949;DHT22;29429;51.074;13.764;2024-02-21T03:18:22;8.00;99.90
43949;DHT22;29429;51.074;13.764;2024-02-21T03:20:50;8.20;99.90
43949;DHT22;29429;51.074;13.764;2024-02-21T03:23:17;8.00;99.90
43949;DHT22;29429;51.074;13.764;2024-02-21T03:25:44;8.10;99.90
43949;DHT22;29429;51.074;13.764;2024-02-21T03:28:11;8.20;99.90
43949;DHT22;29429;51.074;13.764;2024-02-21T03:30:38;8.10;99.90
43949;DHT22;29429;51.074;13.764;2024-02-21T03:33:05;8.20;99.90
43949;DHT22;29429;51.074;13.764;2024-02-21T03:35:32;8.20;99.90
43949;DHT22;29429;51.074;13.764;2024-02-21T03:37:59;8.10;99.90
43949;DHT22;29429;51.074;13.764;2024-02-21T03:40:26;8.20;99.90
43949;DHT22;29429;51.074;13.764;2024-02-21T03:42:53;8.20;99.90
43949;DHT22;29429;51.074;13.764;2024-02-21T03:45:20;8.20;99.90
43949;DHT22;29429;51.074;13.764;2024-02-21T03:47:47;8.20;99.90
43949;DHT22;29429;51.074;13.764;2024-02-21T03:50:14;8.30;99.90
43949;DHT22;29429;51.074;13.764;2024-02-21T03:52:41;8.20;99.90
43949;DHT22;29429;51.074;13.764;2024-02-21T03:55:08;8.10;99.90
43949;DHT22;29429;51.074;13.764;2024-02-21T03:57:35;8.20;99.90
43949;DHT22;29429;51.074;13.764;2024-02-21T04:00:03;8.20;99.90
43949;DHT22;29429;51.074;13.764;2024-02-21T04:02:33;8.20;99.90
43949;DHT22;29429;51.074;13.764;2024-02-21T04:05:00;8.20;99.90
43949;DHT22;29429;51.074;13.764;2024-02-21T04:07:27;8.20;99.90
43949;DHT22;29429;51.074;13.764;2024-02-21T04:09:54;8.20;99.90
43949;DHT22;29429;51.074;13.764;2024-02-21T04:12:21;8.20;99.90
43949;DHT22;29429;51.074;13.764;2024-02-21T04:14:48;8.10;99.90
43949;DHT22;29429;51.074;13.764;2024-02-21T04:17:15;8.20;99.90
43949;DHT22;29429;51.074;13.764;2024-02-21T04:19:41;8.20;99.90
43949;DHT22;29429;51.074;13.764;2024-02-21T04:22:09;8.30;99.90
43949;DHT22;29429;51.074;13.764;2024-02-21T04:24:35;8.30;99.90
43949;DHT22;29429;51.074;13.764;2024-02-21T04:27:03;8.30;99.90
43949;DHT22;29429;51.074;13.764;2024-02-21T04:29:30;8.30;99.90
43949;DHT22;29429;51.074;13.764;2024-02-21T04:31:57;8.30;99.90
43949;DHT22;29429;51.074;13.764;2024-02-21T04:34:24;8.20;99.90
43949;DHT22;29429;51.074;13.764;2024-02-21T04:36:51;8.20;99.90
43949;DHT22;29429;51.074;13.764;2024-02-21T04:39:18;8.20;99.90
43949;DHT22;29429;51.074;13.764;2024-02-21T04:41:45;8.20;99.90
43949;DHT22;29429;51.074;13.764;2024-02-21T04:44:12;8.10;99.90
43949;DHT22;29429;51.074;13.764;2024-02-21T04:46:42;8.20;99.90
43949;DHT22;29429;51.074;13.764;2024-02-21T04:49:10;8.20;99.90
43949;DHT22;29429;51.074;13.764;2024-02-21T04:51:37;8.20;99.90
43949;DHT22;29429;51.074;13.764;2024-02-21T04:54:04;8.10;99.90
43949;DHT22;29429;51.074;13.764;2024-02-21T04:56:31;8.20;99.90
43949;DHT22;29429;51.074;13.764;2024-02-21T04:58:58;8.10;99.90
43949;DHT22;29429;51.074;13.764;2024-02-21T05:01:25;8.00;99.90
43949;DHT22;29429;51.074;13.764;2024-02-21T05:03:52;8.00;99.90
43949;DHT22;29429;51.074;13.764;2024-02-21T05:06:19;8.10;99.90
43949;DHT22;29429;51.074;13.764;2024-02-21T05:08:47;8.20;99.90
43949;DHT22;29429;51.074;13.764;2024-02-21T05:11:14;8.20;99.90
43949;DHT22;29429;51.074;13.764;2024-02-21T05:13:41;8.20;99.90
43949;DHT22;29429;51.074;13.764;2024-02-21T05:16:09;8.30;99.90
43949;DHT22;29429;51.074;13.764;2024-02-21T05:18:35;8.30;99.90
43949;DHT22;29429;51.074;13.764;2024-02-21T05:21:03;8.30;99.90
43949;DHT22;29429;51.074;13.764;2024-02-21T05:23:30;8.30;99.90
43949;DHT22;29429;51.074;13.764;2024-02-21T05:25:57;8.30;99.90
43949;DHT22;29429;51.074;13.764;2024-02-21T05:28:24;8.40;99.90
43949;DHT22;29429;51.074;13.764;2024-02-21T05:30:51;8.30;99.90
43949;DHT22;29429;51.074;13.764;2024-02-21T05:33:18;8.40;99.90
43949;DHT22;29429;51.074;13.764;2024-02-21T05:35:48;8.20;99.90
43949;DHT22;29429;51.074;13.764;2024-02-21T05:38:16;8.40;99.90
43949;DHT22;29429;51.074;13.764;2024-02-21T05:40:46;8.40;99.90
43949;DHT22;29429;51.074;13.764;2024-02-21T05:43:14;8.40;99.90
43949;DHT22;29429;51.074;13.764;2024-02-21T05:45:40;8.40;99.90
43949;DHT22;29429;51.074;13.764;2024-02-21T05:48:07;8.50;99.90
43949;DHT22;29429;51.074;13.764;2024-02-21T05:50:35;8.40;99.90
43949;DHT22;29429;51.074;13.764;2024-02-21T05:53:02;8.60;99.90
43949;DHT22;29429;51.074;13.764;2024-02-21T05:55:30;8.50;99.90
43949;DHT22;29429;51.074;13.764;2024-02-21T05:57:57;8.50;99.90
43949;DHT22;29429;51.074;13.764;2024-02-21T06:00:23;8.50;99.90
43949;DHT22;29429;51.074;13.764;2024-02-21T06:02:50;8.50;99.90
43949;DHT22;29429;51.074;13.764;2024-02-21T06:05:17;8.50;99.90
43949;DHT22;29429;51.074;13.764;2024-02-21T06:07:45;8.50;99.90
43949;DHT22;29429;51.074;13.764;2024-02-21T06:10:11;8.50;99.90
43949;DHT22;29429;51.074;13.764;2024-02-21T06:12:38;8.60;99.90
43949;DHT22;29429;51.074;13.764;2024-02-21T06:15:06;8.50;99.90
43949;DHT22;29429;51.074;13.764;2024-02-21T06:17:33;8.50;99.90
43949;DHT22;29429;51.074;13.764;2024-02-21T06:20:01;8.60;99.90
43949;DHT22;29429;51.074;13.764;2024-02-21T06:22:29;8.60;99.90
43949;DHT22;29429;51.074;13.764;2024-02-21T06:24:57;8.60;99.90
43949;DHT22;29429;51.074;13.764;2024-02-21T06:27:24;8.60;99.90
43949;DHT22;29429;51.074;13.764;2024-02-21T06:29:51;8.60;99.90
43949;DHT22;29429;51.074;13.764;2024-02-21T06:32:18;8.60;99.90
43949;DHT22;29429;51.074;13.764;2024-02-21T06:34:45;8.50;99.90
43949;DHT22;29429;51.074;13.764;2024-02-21T06:37:12;8.50;99.90
43949;DHT22;29429;51.074;13.764;2024-02-21T06:39:39;8.50;99.90
43949;DHT22;29429;51.074;13.764;2024-02-21T06:42:07;8.50;99.90
43949;DHT22;29429;51.074;13.764;2024-02-21T06:44:34;8.50;99.90
43949;DHT22;29429;51.074;13.764;2024-02-21T06:47:07;8.50;99.90
43949;DHT22;29429;51.074;13.764;2024-02-21T06:49:36;8.50;99.90
43949;DHT22;29429;51.074;13.764;2024-02-21T06:52:05;8.50;99.90
43949;DHT22;29429;51.074;13.764;2024-02-21T06:54:32;8.50;99.90
43949;DHT22;29429;51.074;13.764;2024-02-21T06:56:59;8.60;99.90
43949;DHT22;29429;51.074;13.764;2024-02-21T06:59:26;8.60;99.90
43949;DHT22;29429;51.074;13.764;2024-02-21T07:01:54;8.60;99.90
43949;DHT22;29429;51.074;13.764;2024-02-21T07:04:24;8.70;99.90
43949;DHT22;29429;51.074;13.764;2024-02-21T07:06:51;8.70;99.90
43949;DHT22;29429;51.074;13.764;2024-02-21T07:09:19;8.70;99.90
43949;DHT22;29429;51.074;13.764;2024-02-21T07:11:46;8.80;99.90
43949;DHT22;29429;51.074;13.764;2024-02-21T07:14:14;8.80;99.90
43949;DHT22;29429;51.074;13.764;2024-02-21T07:16:42;8.90;99.90
43949;DHT22;29429;51.074;13.764;2024-02-21T07:19:09;8.90;99.90
43949;DHT22;29429;51.074;13.764;2024-02-21T07:21:36;8.90;99.90
43949;DHT22;29429;51.074;13.764;2024-02-21T07:24:08;8.90;99.90
43949;DHT22;29429;51.074;13.764;2024-02-21T07:26:35;8.90;99.90
43949;DHT22;29429;51.074;13.764;2024-02-21T07:29:02;9.00;99.90
43949;DHT22;29429;51.074;13.764;2024-02-21T07:31:29;9.00;99.90
43949;DHT22;29429;51.074;13.764;2024-02-21T07:33:56;9.00;99.90
43949;DHT22;29429;51.074;13.764;2024-02-21T07:36:29;9.00;99.90
43949;DHT22;29429;51.074;13.764;2024-02-21T07:38:59;9.10;99.90
43949;DHT22;29429;51.074;13.764;2024-02-21T07:41:27;9.10;99.90
43949;DHT22;29429;51.074;13.764;2024-02-21T07:43:57;9.10;99.90
43949;DHT22;29429;51.074;13.764;2024-02-21T07:46:24;9.40;99.90
43949;DHT22;29429;51.074;13.764;2024-02-21T07:48:51;9.50;99.90
43949;DHT22;29429;51.074;13.764;2024-02-21T07:51:18;9.60;99.90
43949;DHT22;29429;51.074;13.764;2024-02-21T07:53:46;9.70;99.90
43949;DHT22;29429;51.074;13.764;2024-02-21T07:56:15;9.70;99.90
43949;DHT22;29429;51.074;13.764;2024-02-21T07:58:42;9.80;99.90
43949;DHT22;29429;51.074;13.764;2024-02-21T08:01:09;9.90;99.90
43949;DHT22;29429;51.074;13.764;2024-02-21T08:03:36;9.90;99.90
43949;DHT22;29429;51.074;13.764;2024-02-21T08:06:04;9.90;99.90
43949;DHT22;29429;51.074;13.764;2024-02-21T08:08:31;9.90;99.90
43949;DHT22;29429;51.074;13.764;2024-02-21T08:10:58;9.70;99.90
43949;DHT22;29429;51.074;13.764;2024-02-21T08:13:25;9.80;99.90
43949;DHT22;29429;51.074;13.764;2024-02-21T08:15:52;9.80;99.90
43949;DHT22;29429;51.074;13.764;2024-02-21T08:18:19;9.80;99.90
43949;DHT22;29429;51.074;13.764;2024-02-21T08:20:46;9.80;99.90
43949;DHT22;29429;51.074;13.764;2024-02-21T08:23:16;9.90;99.90
43949;DHT22;29429;51.074;13.764;2024-02-21T08:25:44;9.90;99.90
43949;DHT22;29429;51.074;13.764;2024-02-21T08:28:11;10.00;99.90
43949;DHT22;29429;51.074;13.764;2024-02-21T08:30:39;10.20;99.90
43949;DHT22;29429;51.074;13.764;2024-02-21T08:33:06;10.00;99.90
43949;DHT22;29429;51.074;13.764;2024-02-21T08:35:33;10.20;99.90
43949;DHT22;29429;51.074;13.764;2024-02-21T08:38:00;10.20;99.90
43949;DHT22;29429;51.074;13.764;2024-02-21T08:40:27;10.20;99.90
43949;DHT22;29429;51.074;13.764;2024-02-21T08:42:54;10.30;99.90
43949;DHT22;29429;51.074;13.764;2024-02-21T08:45:21;10.30;99.90
43949;DHT22;29429;51.074;13.764;2024-02-21T08:47:48;10.40;99.90
43949;DHT22;29429;51.074;13.764;2024-02-21T08:50:15;10.40;99.90
43949;DHT22;29429;51.074;13.764;2024-02-21T08:52:54;10.30;99.90
43949;DHT22;29429;51.074;13.764;2024-02-21T08:55:21;10.20;99.90
43949;DHT22;29429;51.074;13.764;2024-02-21T08:57:49;10.10;99.90
43949;DHT22;29429;51.074;13.764;2024-02-21T09:00:16;10.00;99.90
43949;DHT22;29429;51.074;13.764;2024-02-21T09:02:43;10.00;99.90
43949;DHT22;29429;51.074;13.764;2024-02-21T09:05:11;10.00;99.90
43949;DHT22;29429;51.074;13.764;2024-02-21T09:07:38;10.00;99.90
43949;DHT22;29429;51.074;13.764;2024-02-21T09:10:06;10.10;99.90
43949;DHT22;29429;51.074;13.764;2024-02-21T09:12:33;10.10;99.90
43949;DHT22;29429;51.074;13.764;2024-02-21T09:15:00;10.10;99.90
43949;DHT22;29429;51.074;13.764;2024-02-21T09:17:27;10.10;99.90
43949;DHT22;29429;51.074;13.764;2024-02-21T09:19:56;10.10;99.90
43949;DHT22;29429;51.074;13.764;2024-02-21T09:22:26;10.10;99.90
43949;DHT22;29429;51.074;13.764;2024-02-21T09:24:53;10.00;99.90
43949;DHT22;29429;51.074;13.764;2024-02-21T09:27:20;10.10;99.90
43949;DHT22;29429;51.074;13.764;2024-02-21T09:29:46;10.10;99.90
43949;DHT22;29429;51.074;13.764;2024-02-21T09:32:14;10.10;99.90
43949;DHT22;29429;51.074;13.764;2024-02-21T09:34:41;10.20;99.90
43949;DHT22;29429;51.074;13.764;2024-02-21T09:37:08;10.10;99.90
43949;DHT22;29429;51.074;13.764;2024-02-21T09:39:35;10.10;99.90
43949;DHT22;29429;51.074;13.764;2024-02-21T09:42:06;10.10;99.90
43949;DHT22;29429;51.074;13.764;2024-02-21T09:44:38;10.10;99.90
43949;DHT22;29429;51.074;13.764;2024-02-21T09:47:11;10.10;99.90
43949;DHT22;29429;51.074;13.764;2024-02-21T09:49:44;10.10;99.90
43949;DHT22;29429;51.074;13.764;2024-02-21T09:52:13;10.20;99.90
43949;DHT22;29429;51.074;13.764;2024-02-21T09:54:42;10.20;99.90
43949;DHT22;29429;51.074;13.764;2024-02-21T09:57:12;10.20;99.90
43949;DHT22;29429;51.074;13.764;2024-02-21T09:59:39;10.20;99.90
43949;DHT22;29429;51.074;13.764;2024-02-21T10:02:08;10.20;99.90
43949;DHT22;29429;51.074;13.764;2024-02-21T10:04:36;10.10;99.90
43949;DHT22;29429;51.074;13.764;2024-02-21T10:07:03;10.10;99.90
43949;DHT22;29429;51.074;13.764;2024-02-21T10:09:31;10.20;99.90
43949;DHT22;29429;51.074;13.764;2024-02-21T10:12:10;10.30;99.90
43949;DHT22;29429;51.074;13.764;2024-02-21T10:14:39;10.10;99.90
43949;DHT22;29429;51.074;13.764;2024-02-21T10:17:06;10.10;99.90
43949;DHT22;29429;51.074;13.764;2024-02-21T10:19:38;10.10;99.90
43949;DHT22;29429;51.074;13.764;2024-02-21T10:22:08;10.10;99.90
43949;DHT22;29429;51.074;13.764;2024-02-21T10:24:36;10.20;99.90
43949;DHT22;29429;51.074;13.764;2024-02-21T10:27:10;10.20;99.90
43949;DHT22;29429;51.074;13.764;2024-02-21T10:29:39;10.20;99.90
43949;DHT22;29429;51.074;13.764;2024-02-21T10:32:13;10.30;99.90
43949;DHT22;29429;51.074;13.764;2024-02-21T10:34:42;10.20;99.90
43949;DHT22;29429;51.074;13.764;2024-02-21T10:37:11;10.30;99.90
43949;DHT22;29429;51.074;13.764;2024-02-21T10:39:42;10.20;99.90
43949;DHT22;29429;51.074;13.764;2024-02-21T10:42:11;10.40;99.90
43949;DHT22;29429;51.074;13.764;2024-02-21T10:44:40;10.20;99.90
43949;DHT22;29429;51.074;13.764;2024-02-21T10:47:10;10.30;99.90
43949;DHT22;29429;51.074;13.764;2024-02-21T10:49:40;10.30;99.90
43949;DHT22;29429;51.074;13.764;2024-02-21T10:55:20;10.40;99.90
43949;DHT22;29429;51.074;13.764;2024-02-21T10:57:54;10.50;99.90
43949;DHT22;29429;51.074;13.764;2024-02-21T11:00:22;10.50;99.90
43949;DHT22;29429;51.074;13.764;2024-02-21T11:03:00;10.50;99.90
43949;DHT22;29429;51.074;13.764;2024-02-21T11:05:28;10.60;99.90
43949;DHT22;29429;51.074;13.764;2024-02-21T11:07:57;10.60;99.90
43949;DHT22;29429;51.074;13.764;2024-02-21T11:10:26;10.70;99.90
43949;DHT22;29429;51.074;13.764;2024-02-21T11:13:14;10.60;99.90
43949;DHT22;29429;51.074;13.764;2024-02-21T11:15:41;10.60;99.90
43949;DHT22;29429;51.074;13.764;2024-02-21T11:18:08;10.60;99.90
43949;DHT22;29429;51.074;13.764;2024-02-21T11:20:36;10.60;99.90
43949;DHT22;29429;51.074;13.764;2024-02-21T11:23:04;10.50;99.90
43949;DHT22;29429;51.074;13.764;2024-02-21T11:25:32;10.60;99.90
43949;DHT22;29429;51.074;13.764;2024-02-21T11:28:02;10.70;99.90
43949;DHT22;29429;51.074;13.764;2024-02-21T11:30:31;10.70;99.90
43949;DHT22;29429;51.074;13.764;2024-02-21T11:33:00;10.60;99.90
43949;DHT22;29429;51.074;13.764;2024-02-21T11:35:36;10.80;99.90
43949;DHT22;29429;51.074;13.764;2024-02-21T11:38:11;10.80;99.90
43949;DHT22;29429;51.074;13.764;2024-02-21T11:40:46;10.90;99.90
43949;DHT22;29429;51.074;13.764;2024-02-21T11:43:15;11.20;99.90
43949;DHT22;29429;51.074;13.764;2024-02-21T11:45:43;11.10;99.90
43949;DHT22;29429;51.074;13.764;2024-02-21T11:48:10;11.20;99.90
43949;DHT22;29429;51.074;13.764;2024-02-21T11:50:37;11.40;99.90
43949;DHT22;29429;51.074;13.764;2024-02-21T11:53:06;11.50;99.90
43949;DHT22;29429;51.074;13.764;2024-02-21T11:55:33;11.60;99.90
43949;DHT22;29429;51.074;13.764;2024-02-21T11:58:01;11.60;99.90
43949;DHT22;29429;51.074;13.764;2024-02-21T12:00:28;11.70;99.90
43949;DHT22;29429;51.074;13.764;2024-02-21T12:02:55;11.70;99.90
43949;DHT22;29429;51.074;13.764;2024-02-21T12:05:28;11.70;99.90
43949;DHT22;29429;51.074;13.764;2024-02-21T12:07:56;11.70;99.90
43949;DHT22;29429;51.074;13.764;2024-02-21T12:10:26;11.60;99.90
43949;DHT22;29429;51.074;13.764;2024-02-21T12:13:08;11.60;99.90
43949;DHT22;29429;51.074;13.764;2024-02-21T12:15:36;11.70;99.90
43949;DHT22;29429;51.074;13.764;2024-02-21T12:18:03;11.70;99.90
43949;DHT22;29429;51.074;13.764;2024-02-21T12:20:31;11.70;99.90
43949;DHT22;29429;51.074;13.764;2024-02-21T12:23:01;11.80;99.90
43949;DHT22;29429;51.074;13.764;2024-02-21T12:25:30;11.90;99.90
43949;DHT22;29429;51.074;13.764;2024-02-21T12:27:57;11.90;99.90
43949;DHT22;29429;51.074;13.764;2024-02-21T12:30:25;12.00;99.90
43949;DHT22;29429;51.074;13.764;2024-02-21T12:32:52;12.00;99.90
43949;DHT22;29429;51.074;13.764;2024-02-21T12:35:19;12.00;99.90
43949;DHT22;29429;51.074;13.764;2024-02-21T12:37:47;11.90;99.90
43949;DHT22;29429;51.074;13.764;2024-02-21T12:40:14;11.90;99.90
43949;DHT22;29429;51.074;13.764;2024-02-21T12:42:42;12.00;99.90
43949;DHT22;29429;51.074;13.764;2024-02-21T12:45:09;12.00;99.90
43949;DHT22;29429;51.074;13.764;2024-02-21T12:47:36;12.10;99.90
43949;DHT22;29429;51.074;13.764;2024-02-21T12:50:04;12.20;99.90
43949;DHT22;29429;51.074;13.764;2024-02-21T12:52:34;12.20;99.90
43949;DHT22;29429;51.074;13.764;2024-02-21T12:55:01;12.30;99.90
43949;DHT22;29429;51.074;13.764;2024-02-21T12:57:28;12.30;99.90
43949;DHT22;29429;51.074;13.764;2024-02-21T12:59:55;12.40;99.90
43949;DHT22;29429;51.074;13.764;2024-02-21T13:02:22;12.40;99.90
43949;DHT22;29429;51.074;13.764;2024-02-21T13:04:49;12.40;99.90
43949;DHT22;29429;51.074;13.764;2024-02-21T13:07:16;12.20;99.90
43949;DHT22;29429;51.074;13.764;2024-02-21T13:09:43;11.90;99.90
43949;DHT22;29429;51.074;13.764;2024-02-21T13:12:10;11.80;99.90
43949;DHT22;29429;51.074;13.764;2024-02-21T13:14:38;11.60;99.90
43949;DHT22;29429;51.074;13.764;2024-02-21T13:17:06;11.60;99.90
43949;DHT22;29429;51.074;13.764;2024-02-21T13:19:33;11.50;99.90
43949;DHT22;29429;51.074;13.764;2024-02-21T13:22:00;11.50;99.90
43949;DHT22;29429;51.074;13.764;2024-02-21T13:24:30;11.50;99.90
43949;DHT22;29429;51.074;13.764;2024-02-21T13:26:58;11.40;99.90
43949;DHT22;29429;51.074;13.764;2024-02-21T13:29:25;11.40;99.90
43949;DHT22;29429;51.074;13.764;2024-02-21T13:31:52;11.30;99.90
43949;DHT22;29429;51.074;13.764;2024-02-21T13:34:19;11.30;99.90
43949;DHT22;29429;51.074;13.764;2024-02-21T13:36:46;11.30;99.90
43949;DHT22;29429;51.074;13.764;2024-02-21T13:39:13;11.30;99.90
43949;DHT22;29429;51.074;13.764;2024-02-21T13:41:42;11.20;99.90
43949;DHT22;29429;51.074;13.764;2024-02-21T13:44:12;11.20;99.90
43949;DHT22;29429;51.074;13.764;2024-02-21T13:46:39;11.40;99.90
43949;DHT22;29429;51.074;13.764;2024-02-21T13:49:06;11.20;99.90
43949;DHT22;29429;51.074;13.764;2024-02-21T13:51:34;11.20;99.90
43949;DHT22;29429;51.074;13.764;2024-02-21T13:54:05;11.20;99.90
43949;DHT22;29429;51.074;13.764;2024-02-21T13:56:35;11.20;99.90
43949;DHT22;29429;51.074;13.764;2024-02-21T13:59:02;11.30;99.90
43949;DHT22;29429;51.074;13.764;2024-02-21T14:01:30;11.10;99.90
43949;DHT22;29429;51.074;13.764;2024-02-21T14:04:00;11.10;99.90
43949;DHT22;29429;51.074;13.764;2024-02-21T14:06:27;11.10;99.90
43949;DHT22;29429;51.074;13.764;2024-02-21T14:08:54;11.10;99.90
43949;DHT22;29429;51.074;13.764;2024-02-21T14:11:21;11.10;99.90
43949;DHT22;29429;51.074;13.764;2024-02-21T14:13:49;11.10;99.90
43949;DHT22;29429;51.074;13.764;2024-02-21T14:16:16;11.00;99.90
43949;DHT22;29429;51.074;13.764;2024-02-21T14:18:43;11.10;99.90
43949;DHT22;29429;51.074;13.764;2024-02-21T14:21:13;11.30;99.90
43949;DHT22;29429;51.074;13.764;2024-02-21T14:23:40;11.20;99.90
43949;DHT22;29429;51.074;13.764;2024-02-21T14:26:07;11.20;99.90
43949;DHT22;29429;51.074;13.764;2024-02-21T14:28:34;11.20;99.90
43949;DHT22;29429;51.074;13.764;2024-02-21T14:31:02;11.30;99.90
43949;DHT22;29429;51.074;13.764;2024-02-21T14:33:30;11.20;99.90
43949;DHT22;29429;51.074;13.764;2024-02-21T14:35:57;11.10;99.90
43949;DHT22;29429;51.074;13.764;2024-02-21T14:38:24;11.20;99.90
43949;DHT22;29429;51.074;13.764;2024-02-21T14:40:52;11.30;99.90
43949;DHT22;29429;51.074;13.764;2024-02-21T14:43:19;11.30;99.90
43949;DHT22;29429;51.074;13.764;2024-02-21T14:45:48;11.40;99.90
43949;DHT22;29429;51.074;13.764;2024-02-21T14:48:16;11.40;99.90
43949;DHT22;29429;51.074;13.764;2024-02-21T14:50:43;11.50;99.90
43949;DHT22;29429;51.074;13.764;2024-02-21T14:53:10;11.40;99.90
43949;DHT22;29429;51.074;13.764;2024-02-21T14:55:37;11.40;99.90
43949;DHT22;29429;51.074;13.764;2024-02-21T14:58:08;11.40;99.90
43949;DHT22;29429;51.074;13.764;2024-02-21T15:00:36;11.40;99.90
43949;DHT22;29429;51.074;13.764;2024-02-21T15:03:03;11.40;99.90
43949;DHT22;29429;51.074;13.764;2024-02-21T15:05:30;11.30;99.90
43949;DHT22;29429;51.074;13.764;2024-02-21T15:07:58;11.30;99.90
43949;DHT22;29429;51.074;13.764;2024-02-21T15:10:25;11.40;99.90
43949;DHT22;29429;51.074;13.764;2024-02-21T15:12:53;11.30;99.90
43949;DHT22;29429;51.074;13.764;2024-02-21T15:15:20;11.10;99.90
43949;DHT22;29429;51.074;13.764;2024-02-21T15:17:47;11.20;99.90
43949;DHT22;29429;51.074;13.764;2024-02-21T15:20:14;11.00;99.90
43949;DHT22;29429;51.074;13.764;2024-02-21T15:22:41;10.90;99.90
43949;DHT22;29429;51.074;13.764;2024-02-21T15:25:08;10.90;99.90
43949;DHT22;29429;51.074;13.764;2024-02-21T15:27:45;10.80;99.90
43949;DHT22;29429;51.074;13.764;2024-02-21T15:30:13;10.80;99.90
43949;DHT22;29429;51.074;13.764;2024-02-21T15:32:41;10.70;99.90